• Join FlightAware (Why Join?)
  • Login
  • US Flag 
08:19AM EDT


 

Airport Tracker/Info


-or-


 

Live Flight TrackerFlight Track Log ✈ UAL5822 ✈ 23-Apr-2013 ✈ KORD - KTYS

Flight Track Log - Related Links

Times and Time Zones

All times are in EDT time to prevent confusion due to time zone crossing. See the UAL5822 flight status page for this flight to view local times or setup timezone preferences in your user account.

Time Position Orientation Groundspeed Altitude Reporting Facility
EDT Latitude Longitude Course Direction KTS MPH feet Rate Location/Type
10:59AM 41.7558 -87.8181 157° South 256 295 9,200  Level Chicago Center
11:00AM 41.6869 -87.7683 152° Southeast 278 320 11,700 2,160 Climbing Chicago Center
11:01AM 41.6178 -87.7161 151° Southeast 283 326 13,700 1,800 Climbing Chicago Center
11:02AM 41.3869 -87.4943 169° South  Level Estimated
11:02AM 41.5297 -87.6500 151° Southeast 300 345 15,400  Level Chicago Center
11:03AM 41.4508 -87.5903 150° Southeast 320 368 16,700 1,200 Climbing Chicago Center
11:04AM 41.3608 -87.5622 167° South 336 387 17,900 1,080 Climbing Chicago Center
11:05AM 41.2642 -87.5444 172° South 347 399 19,000 1,140 Climbing Chicago Center
11:06AM 41.1625 -87.5239 171° South 364 419 20,300 1,260 Climbing Chicago Center
11:07AM 41.0603 -87.4956 168° South 375 432 21,700 1,260 Climbing Chicago Center
11:09AM 40.9564 -87.4686 169° South 379 436 22,900 1,200 Climbing Chicago Center
11:10AM 40.8514 -87.4403 168° South 383 441 24,200 1,260 Climbing Chicago Center
11:11AM 40.7239 -87.4053 168° South 391 450 25,600 1,260 Climbing Chicago Center
11:12AM 40.6222 -87.3431 155° Southeast 410 472 26,800 720 Climbing Chicago Center
11:13AM 40.5211 -87.2669 150° Southeast 417 480 27,100 120 Climbing Chicago Center
11:14AM 40.4156 -87.1881 150° Southeast 436 502 27,100 -60 Level Chicago Center
11:15AM 40.3092 -87.1086 150° Southeast 443 510 27,000 420 Descending Chicago Center
11:16AM 40.2047 -87.0308 150° Southeast 435 501 28,000 480 Climbing Chicago Center
11:17AM 40.0989 -86.9533 151° Southeast 439 505 28,000  Level Chicago Center
11:18AM 40.0061 -86.8842 150° Southeast 447 514 28,100  Climbing Indianapolis Center
11:19AM 39.8692 -86.7839 151° Southeast 462 532 28,000 -60 Descending Indianapolis Center
11:20AM 39.7581 -86.7017 150° Southeast 460 529 28,000  Level Indianapolis Center
11:21AM 39.6469 -86.6206 151° Southeast 458 527 28,000  Level Indianapolis Center
11:22AM 39.5372 -86.5414 151° Southeast 451 519 28,100  Climbing Indianapolis Center
11:23AM 39.4233 -86.4603 151° Southeast 458 527 28,000 -60 Descending Indianapolis Center
11:24AM 39.3081 -86.3756 150° Southeast 468 539 28,000  Level Indianapolis Center
11:25AM 39.1903 -86.2911 151° Southeast 476 548 28,000  Level Indianapolis Center
11:26AM 39.0711 -86.2064 151° Southeast 481 554 28,000  Level Indianapolis Center
11:27AM 38.9531 -86.1219 151° Southeast 482 555 28,000  Level Indianapolis Center
11:28AM 38.8344 -86.0375 151° Southeast 483 556 28,000  Level Indianapolis Center
11:29AM 38.7150 -85.9539 151° Southeast 484 557 28,000  Level Indianapolis Center
11:30AM 38.5733 -85.8550 151° Southeast 480 552 28,000  Level Indianapolis Center
11:31AM 38.4547 -85.7711 151° Southeast 482 555 28,000  Level Indianapolis Center
11:32AM 38.3358 -85.6889 152° Southeast 483 556 28,000  Level Indianapolis Center
11:33AM 38.2164 -85.6050 151° Southeast 487 560 28,000  Level Indianapolis Center
11:34AM 38.0986 -85.5244 152° Southeast 482 555 28,000  Level Indianapolis Center
11:35AM 37.9811 -85.4414 151° Southeast 481 554 28,000  Level Indianapolis Center
11:36AM 37.8611 -85.3597 152° Southeast 486 559 28,000  Level Indianapolis Center
11:37AM 37.7278 -85.2678 151° Southeast 479 551 28,000  Level Indianapolis Center
11:38AM 37.6086 -85.1856 151° Southeast 484 557 28,000 -300 Level Indianapolis Center
11:39AM 37.4886 -85.1061 152° Southeast 486 559 27,400 -840 Descending Indianapolis Center
11:40AM 37.3733 -85.0258 151° Southeast 477 549 26,300 -1,020 Descending Indianapolis Center
11:41AM 37.2581 -84.9503 152° Southeast 469 540 25,400 -1,080 Descending Indianapolis Center
11:42AM 37.1456 -84.8733 151° Southeast 462 532 24,200 -1,620 Descending Indianapolis Center
11:43AM 37.0244 -84.7928 152° Southeast 455 524 22,100 -2,040 Descending Indianapolis Center
11:44AM 36.9200 -84.7208 151° Southeast 433 498 20,100 -1,980 Descending Indianapolis Center
11:45AM 36.8203 -84.6544 152° Southeast 411 473 18,100 -1,680 Descending Indianapolis Center
11:46AM 36.7253 -84.5917 152° Southeast 389 448 16,700 -1,560 Descending Indianapolis Center
11:47AM 36.6289 -84.5281 152° Southeast 390 449 15,000 -1,860 Descending Indianapolis Center
11:48AM 36.5250 -84.4608 153° Southeast 391 450 13,000 -1,740 Descending Indianapolis Center
11:49AM 36.4283 -84.3956 151° Southeast 356 410 11,500 -1,080 Descending Indianapolis Center
11:50AM 36.3425 -84.3394 152° Southeast 348 400 10,900 -300 Descending Indianapolis Center
11:51AM 36.2564 -84.2844 153° Southeast 347 399 10,900 -480 Level Indianapolis Center
11:52AM 36.1786 -84.2347 153° Southeast 319 367 10,000 -1,080 Descending Indianapolis Center
11:54AM 36.1131 -84.1914 152° Southeast 279 321 8,700 -1,380 Descending Indianapolis Center
11:55AM 36.0467 -84.1531 155° Southeast 268 308 7,200 -960 Descending Indianapolis Center
11:56AM 35.9686 -84.1464 176° South 269 310 6,700 -1,020 Descending Atlanta Center
11:57AM 35.8975 -84.1414 177° South 269 310 5,100 -1,260 Descending Atlanta Center
11:58AM 35.8308 -84.1436 182° South 257 296 4,200 -900 Descending Atlanta Center
12:01PM 35.8110 -83.9940 152° Southeast  Level Estimated
12:08PM 35.8110 -83.9940 152° Southeast  Level Estimated
12:09PM 35.8110 -83.9940 152° Southeast  Level Estimated